createdAt,value
2018-12-27T00:00:39.415Z,0
2018-12-27T00:01:40.098Z,0
2018-12-27T00:02:41.337Z,0
2018-12-27T00:03:41.163Z,0
2018-12-27T00:04:41.845Z,0
2018-12-27T00:05:42.826Z,0
2018-12-27T00:06:42.954Z,0
2018-12-27T00:07:44.361Z,0
2018-12-27T00:08:45.040Z,0
2018-12-27T00:09:45.793Z,0
2018-12-27T00:10:46.484Z,0
2018-12-27T00:11:46.960Z,0
2018-12-27T00:12:47.085Z,0
2018-12-27T00:13:47.625Z,0
2018-12-27T00:14:49.032Z,0
2018-12-27T00:15:50.093Z,0
2018-12-27T00:16:50.798Z,0
2018-12-27T00:17:50.925Z,0
2018-12-27T00:18:52.611Z,0
2018-12-27T00:19:53.299Z,0
2018-12-27T00:20:53.981Z,0
2018-12-27T00:21:54.105Z,0
2018-12-27T00:22:55.510Z,0
2018-12-27T00:23:55.765Z,0
2018-12-27T00:24:56.195Z,0
2018-12-27T00:25:57.157Z,0
2018-12-27T00:26:58.181Z,0
2018-12-27T00:27:58.307Z,0
2018-12-27T00:28:59.712Z,0
2018-12-27T00:30:00.265Z,0
2018-12-27T00:31:00.676Z,0
2018-12-27T00:32:01.360Z,0
2018-12-27T00:33:05.486Z,0
2018-12-27T00:34:07.180Z,0
2018-12-27T00:35:07.144Z,0
2018-12-27T00:36:07.547Z,0
2018-12-27T00:37:08.228Z,0
2018-12-27T00:38:08.925Z,0
2018-12-27T00:39:10.884Z,0
2018-12-27T00:40:11.563Z,0
2018-12-27T00:41:12.799Z,0
2018-12-27T00:42:12.482Z,0
2018-12-27T00:43:13.997Z,0
2018-12-27T00:44:13.685Z,0
2018-12-27T00:45:14.366Z,0
2018-12-27T00:46:14.493Z,0
2018-12-27T00:47:15.623Z,0
2018-12-27T00:48:16.863Z,0
2018-12-27T00:49:16.832Z,0
2018-12-27T00:50:17.516Z,0
2018-12-27T00:51:17.641Z,0
2018-12-27T00:52:20.157Z,0
2018-12-27T00:53:19.841Z,0
2018-12-27T00:54:20.666Z,0
2018-12-27T00:55:21.349Z,0
2018-12-27T00:56:21.751Z,0
2018-12-27T00:57:22.709Z,0
2018-12-27T00:58:23.671Z,0
2018-12-27T00:59:24.074Z,0
2018-12-27T01:00:25.751Z,0
2018-12-27T01:01:26.153Z,0
2018-12-27T01:02:26.948Z,0
2018-12-27T01:03:27.081Z,0
2018-12-27T01:04:27.610Z,0
2018-12-27T01:05:28.572Z,0
2018-12-27T01:06:29.253Z,0
2018-12-27T01:07:29.459Z,0
2018-12-27T01:08:29.865Z,0
2018-12-27T01:09:30.268Z,0
2018-12-27T01:10:30.400Z,0
2018-12-27T01:11:32.076Z,0
2018-12-27T01:12:32.214Z,0
2018-12-27T01:13:33.897Z,0
2018-12-27T01:14:34.434Z,0
2018-12-27T01:15:36.114Z,0
2018-12-27T01:16:36.244Z,0
2018-12-27T01:17:37.922Z,0
2018-12-27T01:18:50.356Z,0
2018-12-27T01:19:51.453Z,0
2018-12-27T01:20:52.424Z,0
2018-12-27T01:21:53.669Z,0
2018-12-27T01:22:53.807Z,0
2018-12-27T01:23:55.228Z,0
2018-12-27T01:24:55.641Z,0
2018-12-27T01:25:56.331Z,0
2018-12-27T01:26:57.023Z,0
2018-12-27T01:27:57.161Z,0
2018-12-27T01:28:58.132Z,0
2018-12-27T01:29:58.951Z,0
2018-12-27T01:30:59.919Z,0
2018-12-27T01:32:00.888Z,0
2018-12-27T01:33:00.583Z,0
2018-12-27T01:34:01.554Z,0
2018-12-27T01:35:03.082Z,0
2018-12-27T01:36:03.327Z,0
2018-12-27T01:37:03.298Z,0
2018-12-27T01:38:03.913Z,0
2018-12-27T01:39:03.887Z,0
2018-12-27T01:40:05.291Z,0
2018-12-27T01:41:05.432Z,0
2018-12-27T01:42:07.135Z,0
2018-12-27T01:43:07.545Z,0
2018-12-27T01:44:08.515Z,0
2018-12-27T01:45:08.929Z,0
2018-12-27T01:46:09.676Z,0
2018-12-27T01:47:10.921Z,0
2018-12-27T01:48:10.612Z,0
2018-12-27T01:49:11.583Z,0
2018-12-27T01:50:14.012Z,0
2018-12-27T01:51:12.983Z,0
2018-12-27T01:52:12.951Z,0
2018-12-27T01:53:13.085Z,0
2018-12-27T01:54:14.497Z,0
2018-12-27T01:55:14.642Z,0
2018-12-27T01:56:16.334Z,0
2018-12-27T01:57:17.303Z,0
2018-12-27T01:58:17.724Z,0
2018-12-27T01:59:18.425Z,0
2018-12-27T02:00:18.693Z,0
2018-12-27T02:01:19.828Z,0
2018-12-27T02:02:20.244Z,0
2018-12-27T02:03:33.577Z,0
2018-12-27T02:04:34.397Z,0
2018-12-27T02:05:35.644Z,0
2018-12-27T02:06:35.777Z,0
2018-12-27T02:07:37.469Z,0
2018-12-27T02:08:38.162Z,0
2018-12-27T02:09:39.133Z,0
2018-12-27T02:10:39.851Z,0
2018-12-27T02:11:40.584Z,0
2018-12-27T02:12:41.275Z,0
2018-12-27T02:13:42.798Z,0
2018-12-27T02:14:42.920Z,0
2018-12-27T02:15:43.665Z,0
2018-12-27T02:16:43.803Z,0
2018-12-27T02:17:45.220Z,0
2018-12-27T02:18:45.358Z,0
2018-12-27T02:19:46.772Z,0
2018-12-27T02:20:47.537Z,0
2018-12-27T02:21:47.672Z,0
2018-12-27T02:22:48.814Z,0
2018-12-27T02:23:50.831Z,0
2018-12-27T02:24:50.658Z,0
2018-12-27T02:25:52.641Z,0
2018-12-27T02:26:53.610Z,0
2018-12-27T02:27:53.027Z,0
2018-12-27T02:28:54.168Z,0
2018-12-27T02:29:55.579Z,0
2018-12-27T02:30:55.722Z,0
2018-12-27T02:31:56.971Z,0
2018-12-27T02:32:57.664Z,0
2018-12-27T02:33:58.658Z,0
2018-12-27T02:34:59.717Z,0
2018-12-27T02:36:01.260Z,0
2018-12-27T02:37:01.232Z,0
2018-12-27T02:38:02.255Z,0
2018-12-27T02:39:03.660Z,0
2018-12-27T02:40:03.918Z,0
2018-12-27T02:41:05.165Z,0
2018-12-27T02:42:05.448Z,0
2018-12-27T02:43:05.691Z,0
2018-12-27T02:44:06.109Z,0
2018-12-27T02:45:08.096Z,0
2018-12-27T02:46:08.643Z,0
2018-12-27T02:47:09.065Z,0
2018-12-27T02:48:09.491Z,0
2018-12-27T02:49:10.737Z,0
2018-12-27T02:50:10.873Z,0
2018-12-27T02:51:12.129Z,0
2018-12-27T02:52:11.841Z,0
2018-12-27T02:53:13.649Z,0
2018-12-27T02:54:12.786Z,0
2018-12-27T02:55:14.170Z,0
2018-12-27T02:56:14.864Z,0
2018-12-27T02:57:16.110Z,0
2018-12-27T02:58:17.094Z,0
2018-12-27T02:59:17.786Z,0
2018-12-27T03:00:18.205Z,0
2018-12-27T03:01:18.901Z,0
2018-12-27T03:02:19.494Z,0
2018-12-27T03:03:20.186Z,0
2018-12-27T03:04:20.616Z,0
2018-12-27T03:05:21.467Z,0
2018-12-27T03:06:22.726Z,0
2018-12-27T03:07:22.416Z,0
2018-12-27T03:08:23.115Z,0
2018-12-27T03:09:24.362Z,0
2018-12-27T03:10:24.942Z,0
2018-12-27T03:11:25.638Z,0
2018-12-27T03:12:26.882Z,0
2018-12-27T03:13:27.863Z,0
2018-12-27T03:14:28.429Z,0
2018-12-27T03:15:28.698Z,0
2018-12-27T03:16:29.682Z,0
2018-12-27T03:17:30.097Z,0
2018-12-27T03:18:31.342Z,0
2018-12-27T03:19:32.412Z,0
2018-12-27T03:20:32.389Z,0
2018-12-27T03:21:32.528Z,0
2018-12-27T03:22:34.227Z,0
2018-12-27T03:23:34.924Z,0
2018-12-27T03:24:35.649Z,0
2018-12-27T03:25:36.309Z,0
2018-12-27T03:26:37.568Z,0
2018-12-27T03:27:38.857Z,0
2018-12-27T03:28:38.550Z,0
2018-12-27T03:29:40.030Z,0
2018-12-27T03:30:42.170Z,0
2018-12-27T03:31:42.236Z,0
2018-12-27T03:32:43.083Z,0
2018-12-27T03:33:42.780Z,0
2018-12-27T03:34:43.029Z,0
2018-12-27T03:35:43.445Z,0
2018-12-27T03:36:43.585Z,0
2018-12-27T03:37:45.563Z,0
2018-12-27T03:38:46.258Z,0
2018-12-27T03:39:46.958Z,0
2018-12-27T03:40:47.651Z,0
2018-12-27T03:41:48.925Z,0
2018-12-27T03:42:48.353Z,0
2018-12-27T03:43:50.046Z,0
2018-12-27T03:44:51.311Z,0
2018-12-27T03:45:51.737Z,0
2018-12-27T03:46:53.205Z,0
2018-12-27T03:47:54.454Z,0
2018-12-27T03:48:54.150Z,0
2018-12-27T03:49:55.681Z,0
2018-12-27T03:50:55.097Z,0
2018-12-27T03:51:56.356Z,0
2018-12-27T03:52:57.323Z,0
2018-12-27T03:53:57.739Z,0
2018-12-27T03:54:58.447Z,0
2018-12-27T03:55:59.370Z,0
2018-12-27T03:56:59.799Z,0
2018-12-27T03:58:01.041Z,0
2018-12-27T03:59:00.468Z,0
2018-12-27T04:00:01.017Z,0
2018-12-27T04:01:01.989Z,0
2018-12-27T04:02:03.793Z,0
2018-12-27T04:03:03.776Z,0
2018-12-27T04:04:05.028Z,0
2018-12-27T04:05:04.723Z,0
2018-12-27T04:06:06.127Z,0
2018-12-27T04:07:05.565Z,0
2018-12-27T04:08:07.565Z,0
2018-12-27T04:09:07.981Z,0
2018-12-27T04:10:08.957Z,0
2018-12-27T04:11:09.368Z,0
2018-12-27T04:12:10.376Z,0
2018-12-27T04:13:09.793Z,0
2018-12-27T04:14:10.765Z,0
2018-12-27T04:15:12.340Z,0
2018-12-27T04:16:12.482Z,0
2018-12-27T04:17:12.894Z,0
2018-12-27T04:18:13.868Z,0
2018-12-27T04:19:14.842Z,0
2018-12-27T04:20:15.536Z,0
2018-12-27T04:21:15.672Z,0
2018-12-27T04:22:17.640Z,0
2018-12-27T04:23:18.103Z,0
2018-12-27T04:24:18.520Z,0
2018-12-27T04:25:18.657Z,0
2018-12-27T04:26:20.900Z,0
2018-12-27T04:27:20.870Z,0
2018-12-27T04:28:22.117Z,0
2018-12-27T04:29:22.418Z,0
2018-12-27T04:30:23.395Z,0
2018-12-27T04:31:23.967Z,0
2018-12-27T04:32:23.939Z,0
2018-12-27T04:33:24.089Z,0
2018-12-27T04:34:26.062Z,0
2018-12-27T04:35:27.314Z,0
2018-12-27T04:36:26.952Z,0
2018-12-27T04:37:27.381Z,0
2018-12-27T04:38:28.109Z,0
2018-12-27T04:39:28.525Z,0
2018-12-27T04:40:30.343Z,0
2018-12-27T04:41:30.436Z,0
2018-12-27T04:42:31.967Z,0
2018-12-27T04:43:31.390Z,0
2018-12-27T04:44:32.636Z,0
2018-12-27T04:45:33.604Z,0
2018-12-27T04:46:33.729Z,0
2018-12-27T04:47:34.415Z,0
2018-12-27T04:48:34.570Z,0
2018-12-27T04:49:35.836Z,0
2018-12-27T04:50:35.812Z,0
2018-12-27T04:51:36.521Z,0
2018-12-27T04:52:37.770Z,0
2018-12-27T04:53:38.466Z,0
2018-12-27T04:54:38.884Z,0
2018-12-27T04:55:39.853Z,0
2018-12-27T04:56:41.388Z,0
2018-12-27T04:57:40.797Z,0
2018-12-27T04:58:41.490Z,0
2018-12-27T04:59:41.924Z,0
2018-12-27T05:00:42.764Z,0
2018-12-27T05:01:43.740Z,0
2018-12-27T05:02:44.437Z,0
2018-12-27T05:03:44.863Z,0
2018-12-27T05:04:46.191Z,0
2018-12-27T05:05:46.618Z,0
2018-12-27T05:06:47.449Z,0
2018-12-27T05:07:48.697Z,0
2018-12-27T05:08:49.419Z,0
2018-12-27T05:09:50.134Z,0
2018-12-27T05:10:50.833Z,0
2018-12-27T05:11:51.250Z,0
2018-12-27T05:12:52.498Z,0
2018-12-27T05:13:52.941Z,0
2018-12-27T05:14:53.633Z,0
2018-12-27T05:15:54.051Z,0
2018-12-27T05:16:55.722Z,0
2018-12-27T05:17:56.692Z,0
2018-12-27T05:18:57.386Z,0
2018-12-27T05:19:58.125Z,0
2018-12-27T05:20:59.110Z,0
2018-12-27T05:21:58.807Z,0
2018-12-27T05:22:59.500Z,0
2018-12-27T05:24:00.775Z,0
2018-12-27T05:25:00.862Z,0
2018-12-27T05:26:01.276Z,0
2018-12-27T05:27:02.962Z,0
2018-12-27T05:28:03.940Z,0
2018-12-27T05:29:04.923Z,0
2018-12-27T05:30:05.091Z,0
2018-12-27T05:31:05.502Z,0
2018-12-27T05:32:05.920Z,0
2018-12-27T05:33:06.070Z,0
2018-12-27T05:34:07.763Z,0
2018-12-27T05:35:08.179Z,0
2018-12-27T05:36:09.700Z,0
2018-12-27T05:37:08.800Z,0
2018-12-27T05:38:09.493Z,0
2018-12-27T05:39:10.459Z,0
2018-12-27T05:40:11.152Z,0
2018-12-27T05:41:11.568Z,0
2018-12-27T05:42:11.979Z,0
2018-12-27T05:43:13.117Z,0
2018-12-27T05:44:14.253Z,0
2018-12-27T05:45:15.947Z,0
2018-12-27T05:46:16.642Z,0
2018-12-27T05:47:17.039Z,0
2018-12-27T05:48:18.291Z,0
2018-12-27T05:49:17.703Z,0
2018-12-27T05:50:18.838Z,0
2018-12-27T05:51:20.085Z,0
2018-12-27T05:52:20.055Z,0
2018-12-27T05:53:20.745Z,0
2018-12-27T05:54:21.502Z,0
2018-12-27T05:55:22.474Z,0
2018-12-27T05:56:23.001Z,0
2018-12-27T05:57:22.621Z,0
2018-12-27T05:58:23.034Z,0
2018-12-27T05:59:24.006Z,0
2018-12-27T06:00:25.249Z,0
2018-12-27T06:01:25.383Z,0
2018-12-27T06:02:26.073Z,0
2018-12-27T06:03:26.781Z,0
2018-12-27T06:04:38.916Z,0
2018-12-27T06:05:39.763Z,0
2018-12-27T06:06:40.175Z,0
2018-12-27T06:07:40.863Z,0
2018-12-27T06:08:41.557Z,0
2018-12-27T06:09:42.249Z,0
2018-12-27T06:10:43.220Z,0
2018-12-27T06:11:43.359Z,0
2018-12-27T06:12:43.770Z,0
2018-12-27T06:13:45.464Z,0
2018-12-27T06:14:45.879Z,0
2018-12-27T06:15:47.262Z,0
2018-12-27T06:16:47.950Z,0
2018-12-27T06:17:48.644Z,0
2018-12-27T06:18:49.616Z,0
2018-12-27T06:19:50.309Z,0
2018-12-27T06:20:50.444Z,0
2018-12-27T06:21:51.411Z,0
2018-12-27T06:22:52.106Z,0
2018-12-27T06:23:52.647Z,0
2018-12-27T06:24:53.627Z,0
2018-12-27T06:25:53.955Z,0
2018-12-27T06:26:54.372Z,0
2018-12-27T06:27:55.620Z,0
2018-12-27T06:28:56.171Z,0
2018-12-27T06:29:55.583Z,0
2018-12-27T06:30:55.721Z,0
2018-12-27T06:31:56.778Z,0
2018-12-27T06:32:57.746Z,0
2018-12-27T06:33:58.160Z,0
2018-12-27T06:34:59.854Z,0
2018-12-27T06:36:00.740Z,0
2018-12-27T06:37:01.218Z,0
2018-12-27T06:38:01.910Z,0
2018-12-27T06:39:02.325Z,0
2018-12-27T06:40:02.744Z,0
2018-12-27T06:41:03.992Z,0
2018-12-27T06:42:04.406Z,0
2018-12-27T06:43:05.105Z,0
2018-12-27T06:44:05.799Z,0
2018-12-27T06:45:06.575Z,0
2018-12-27T06:46:06.145Z,0
2018-12-27T06:47:08.114Z,0
2018-12-27T06:48:09.085Z,0
2018-12-27T06:49:09.776Z,0
2018-12-27T06:50:10.471Z,0
2018-12-27T06:51:11.725Z,0
2018-12-27T06:52:12.975Z,0
2018-12-27T06:53:12.665Z,5.63
2018-12-27T06:54:13.420Z,5.63
2018-12-27T06:55:14.132Z,5.63
2018-12-27T06:56:14.701Z,5.63
2018-12-27T06:57:16.119Z,5.63
2018-12-27T06:58:19.522Z,5.63
2018-12-27T06:59:18.695Z,5.63
2018-12-27T07:00:19.942Z,11.25
2018-12-27T07:01:20.656Z,11.25
2018-12-27T07:02:21.361Z,11.25
2018-12-27T07:03:21.781Z,11.25
2018-12-27T07:04:21.916Z,11.25
2018-12-27T07:05:22.966Z,16.88
2018-12-27T07:06:23.705Z,16.88
2018-12-27T07:07:24.806Z,16.88
2018-12-27T07:08:25.504Z,16.88
2018-12-27T07:09:25.922Z,22.5
2018-12-27T07:10:27.063Z,22.5
2018-12-27T07:11:28.757Z,22.5
2018-12-27T07:12:29.796Z,28.13
2018-12-27T07:13:30.766Z,28.13
2018-12-27T07:14:30.187Z,28.13
2018-12-27T07:15:32.161Z,28.13
2018-12-27T07:16:32.325Z,33.75
2018-12-27T07:17:33.574Z,33.75
2018-12-27T07:18:33.268Z,33.75
2018-12-27T07:19:33.691Z,39.38
2018-12-27T07:20:34.390Z,39.38
2018-12-27T07:21:34.526Z,39.38
2018-12-27T07:22:35.946Z,39.38
2018-12-27T07:23:36.364Z,45
2018-12-27T07:24:37.339Z,45
2018-12-27T07:25:37.809Z,45
2018-12-27T07:26:38.936Z,50.63
2018-12-27T07:27:39.356Z,50.63
2018-12-27T07:28:42.224Z,50.63
2018-12-27T07:29:46.877Z,56.25
2018-12-27T07:29:59.539Z,56.25
2018-12-27T07:30:23.095Z,56.25
2018-12-27T07:30:34.709Z,56.25
2018-12-27T07:31:23.419Z,56.25
2018-12-27T07:31:32.978Z,56.25
2018-12-27T07:32:30.013Z,61.88
2018-12-27T07:33:30.998Z,61.88
2018-12-27T07:34:30.690Z,61.88
2018-12-27T07:35:31.831Z,67.5
2018-12-27T07:36:33.251Z,67.5
2018-12-27T07:37:34.226Z,67.5
2018-12-27T07:38:34.367Z,73.13
2018-12-27T07:39:34.784Z,73.13
2018-12-27T07:40:36.206Z,73.13
2018-12-27T07:41:36.628Z,78.75
2018-12-27T07:42:37.464Z,78.75
2018-12-27T07:43:38.606Z,84.38
2018-12-27T07:44:40.143Z,90
2018-12-27T07:45:39.844Z,90
2018-12-27T07:46:40.354Z,90
2018-12-27T07:47:40.766Z,95.63
2018-12-27T07:48:42.190Z,106.88
2018-12-27T07:49:43.609Z,168.75
2018-12-27T07:50:44.308Z,298.13
2018-12-27T07:51:45.727Z,382.5
2018-12-27T07:52:46.605Z,427.5
2018-12-27T07:53:48.029Z,416.25
2018-12-27T07:54:48.572Z,433.13
2018-12-27T07:55:48.999Z,450
2018-12-27T07:56:50.418Z,500.63
2018-12-27T07:57:50.973Z,500.63
2018-12-27T07:59:06.535Z,478.13
2018-12-27T08:00:11.993Z,450
2018-12-27T08:00:22.984Z,421.88
2018-12-27T08:00:36.784Z,382.5
2018-12-27T08:00:56.590Z,309.38
2018-12-27T08:01:54.522Z,146.25
2018-12-27T08:02:54.949Z,146.25
2018-12-27T08:03:55.151Z,163.13
2018-12-27T08:05:10.336Z,331.88
2018-12-27T08:06:12.032Z,511.88
2018-12-27T08:07:11.740Z,540
2018-12-27T08:08:12.160Z,495
2018-12-27T08:09:13.141Z,438.75
2018-12-27T08:10:14.118Z,348.75
2018-12-27T08:11:14.539Z,241.88
2018-12-27T08:12:17.813Z,157.5
2018-12-27T08:13:16.063Z,157.5
2018-12-27T08:14:17.764Z,151.88
2018-12-27T08:15:18.536Z,151.88
2018-12-27T08:16:19.236Z,157.5
2018-12-27T08:17:19.974Z,163.13
2018-12-27T08:18:20.676Z,185.63
2018-12-27T08:19:21.435Z,438.75
2018-12-27T08:20:21.856Z,663.75
2018-12-27T08:21:22.002Z,663.75
2018-12-27T08:22:23.766Z,601.88
2018-12-27T08:23:24.509Z,556.88
2018-12-27T08:24:25.220Z,675
2018-12-27T08:25:25.365Z,804.38
2018-12-27T08:26:25.958Z,528.75
2018-12-27T08:27:26.658Z,230.63
2018-12-27T08:28:29.998Z,174.38
2018-12-27T08:29:29.012Z,174.38
2018-12-27T08:30:29.155Z,168.75
2018-12-27T08:31:31.129Z,168.75
2018-12-27T08:32:31.558Z,168.75
2018-12-27T08:33:31.982Z,168.75
2018-12-27T08:34:32.678Z,174.38
2018-12-27T08:35:32.822Z,180
2018-12-27T08:36:33.933Z,191.25
2018-12-27T08:37:34.637Z,202.5
2018-12-27T08:38:35.057Z,421.88
2018-12-27T08:39:35.204Z,545.63
2018-12-27T08:40:36.630Z,427.5
2018-12-27T08:41:37.332Z,286.88
2018-12-27T08:42:37.754Z,590.63
2018-12-27T08:43:56.415Z,950.63
2018-12-27T08:44:52.053Z,871.88
2018-12-27T08:45:53.200Z,663.75
2018-12-27T08:46:54.628Z,483.75
2018-12-27T08:47:55.327Z,331.88
2018-12-27T08:48:56.029Z,286.88
2018-12-27T08:49:56.734Z,320.63
2018-12-27T08:50:57.711Z,382.5
2018-12-27T08:51:58.424Z,511.88
2018-12-27T08:52:58.849Z,658.13
2018-12-27T08:53:59.273Z,770.63
2018-12-27T08:55:00.255Z,596.25
2018-12-27T08:56:01.512Z,360
2018-12-27T08:57:02.268Z,241.88
2018-12-27T08:58:03.254Z,337.5
2018-12-27T08:59:19.282Z,556.88
2018-12-27T09:00:15.838Z,691.88
2018-12-27T09:01:16.546Z,793.13
2018-12-27T09:02:16.690Z,815.63
2018-12-27T09:03:17.390Z,618.75
2018-12-27T09:04:18.098Z,393.75
2018-12-27T09:05:21.156Z,286.88
2018-12-27T09:06:22.967Z,292.5
2018-12-27T09:07:23.386Z,348.75
2018-12-27T09:08:24.089Z,438.75
2018-12-27T09:09:24.245Z,416.25
2018-12-27T09:10:24.834Z,393.75
2018-12-27T09:11:26.258Z,483.75
2018-12-27T09:12:26.678Z,568.13
2018-12-27T09:13:27.658Z,714.38
2018-12-27T09:14:27.081Z,759.38
2018-12-27T09:15:28.228Z,894.38
2018-12-27T09:16:29.373Z,877.5
2018-12-27T09:17:30.081Z,680.63
2018-12-27T09:18:30.520Z,815.63
2018-12-27T09:19:30.952Z,1012.5
2018-12-27T09:20:32.969Z,877.5
2018-12-27T09:21:32.673Z,663.75
2018-12-27T09:22:32.671Z,523.13
2018-12-27T09:23:33.094Z,523.13
2018-12-27T09:24:34.077Z,523.13
2018-12-27T09:25:34.497Z,500.63
2018-12-27T09:26:35.473Z,759.38
2018-12-27T09:27:36.189Z,641.25
2018-12-27T09:28:36.888Z,624.38
2018-12-27T09:29:37.595Z,506.25
2018-12-27T09:30:38.262Z,506.25
2018-12-27T09:31:39.653Z,500.63
2018-12-27T09:32:39.363Z,495
2018-12-27T09:33:40.179Z,506.25
2018-12-27T09:34:41.521Z,495
2018-12-27T09:35:40.997Z,686.25
2018-12-27T09:36:41.704Z,500.63
2018-12-27T09:37:42.409Z,489.38
2018-12-27T09:38:42.838Z,483.75
2018-12-27T09:39:43.261Z,675
2018-12-27T09:40:43.839Z,618.75
2018-12-27T09:41:44.983Z,466.88
2018-12-27T09:42:47.520Z,461.25
2018-12-27T09:43:46.941Z,489.38
2018-12-27T09:44:48.364Z,528.75
2018-12-27T09:45:49.789Z,478.13
2018-12-27T09:46:50.770Z,455.63
2018-12-27T09:47:50.919Z,455.63
2018-12-27T09:48:52.060Z,450
2018-12-27T09:49:53.325Z,466.88
2018-12-27T09:50:53.713Z,455.63
2018-12-27T09:51:54.415Z,461.25
2018-12-27T09:52:05.905Z,466.88
2018-12-27T09:53:06.663Z,478.13
2018-12-27T09:54:07.921Z,511.88
2018-12-27T09:55:08.621Z,506.25
2018-12-27T09:56:09.045Z,506.25
2018-12-27T09:57:10.301Z,506.25
2018-12-27T09:58:10.836Z,517.5
2018-12-27T09:59:16.749Z,523.13
2018-12-27T09:59:24.399Z,534.38
2018-12-27T10:00:22.861Z,500.63
2018-12-27T10:01:23.856Z,500.63
2018-12-27T10:02:24.586Z,500.63
2018-12-27T10:03:25.007Z,506.25
2018-12-27T10:04:26.268Z,511.88
2018-12-27T10:05:33.551Z,528.75
2018-12-27T10:05:38.617Z,534.38
2018-12-27T10:06:39.198Z,528.75
2018-12-27T10:07:40.630Z,523.13
2018-12-27T10:08:41.333Z,523.13
2018-12-27T10:09:42.314Z,517.5
2018-12-27T10:10:42.741Z,523.13
2018-12-27T10:11:44.199Z,545.63
2018-12-27T10:12:44.627Z,545.63
2018-12-27T10:13:47.029Z,556.88
2018-12-27T10:14:47.502Z,703.13
2018-12-27T10:15:47.721Z,607.5
2018-12-27T10:16:49.139Z,551.25
2018-12-27T10:17:49.282Z,545.63
2018-12-27T10:18:50.704Z,545.63
2018-12-27T10:19:51.405Z,534.38
2018-12-27T10:20:51.845Z,517.5
2018-12-27T10:21:52.262Z,511.88
2018-12-27T10:22:53.685Z,517.5
2018-12-27T10:23:54.664Z,523.13
2018-12-27T10:24:55.427Z,523.13
2018-12-27T10:25:55.849Z,528.75
2018-12-27T10:26:57.243Z,534.38
2018-12-27T10:27:59.595Z,534.38
2018-12-27T10:29:14.177Z,534.38
2018-12-27T10:30:11.070Z,534.38
2018-12-27T10:31:12.334Z,534.38
2018-12-27T10:32:12.755Z,534.38
2018-12-27T10:33:13.465Z,540
2018-12-27T10:34:13.884Z,551.25
2018-12-27T10:35:14.312Z,573.75
2018-12-27T10:36:15.663Z,607.5
2018-12-27T10:37:17.043Z,635.63
2018-12-27T10:38:16.819Z,652.5
2018-12-27T10:39:17.521Z,675
2018-12-27T10:40:18.149Z,691.88
2018-12-27T10:41:18.843Z,731.25
2018-12-27T10:42:22.581Z,748.13
2018-12-27T10:43:20.843Z,1136.25
2018-12-27T10:44:20.565Z,883.13
2018-12-27T10:45:21.547Z,888.75
2018-12-27T10:46:21.969Z,821.25
2018-12-27T10:47:22.675Z,838.13
2018-12-27T10:48:22.820Z,832.5
2018-12-27T10:49:27.664Z,911.25
2018-12-27T10:50:42.931Z,1434.38
2018-12-27T10:50:55.980Z,1681.88
2018-12-27T10:51:06.408Z,1946.25
2018-12-27T10:51:20.430Z,2255.63
2018-12-27T10:51:30.374Z,2255.63
2018-12-27T10:52:38.254Z,1456.88
2018-12-27T10:53:39.147Z,2137.5
2018-12-27T10:54:42.689Z,3009.38
2018-12-27T10:55:44.645Z,1845
2018-12-27T10:56:42.884Z,1603.13
2018-12-27T10:57:43.604Z,1552.5
2018-12-27T10:58:44.031Z,1051.88
2018-12-27T11:00:02.670Z,1006.88
2018-12-27T11:00:15.645Z,995.63
2018-12-27T11:00:28.514Z,995.63
2018-12-27T11:00:39.391Z,1001.25
2018-12-27T11:01:36.792Z,1001.25
2018-12-27T11:02:36.923Z,1130.63
2018-12-27T11:03:37.623Z,990
2018-12-27T11:04:38.327Z,1158.75
2018-12-27T11:05:38.543Z,2975.63
2018-12-27T11:06:38.972Z,1563.75
2018-12-27T11:07:39.399Z,973.13
2018-12-27T11:08:40.381Z,950.63
2018-12-27T11:09:40.805Z,1001.25
2018-12-27T11:10:41.519Z,1890
2018-12-27T11:11:41.941Z,2160
2018-12-27T11:12:42.085Z,1361.25
2018-12-27T11:13:43.867Z,1181.25
2018-12-27T11:14:45.130Z,1501.88
2018-12-27T11:15:44.564Z,1361.25
2018-12-27T11:16:45.764Z,1243.13
2018-12-27T11:17:46.193Z,1462.5
2018-12-27T11:18:46.901Z,1923.75
2018-12-27T11:19:49.167Z,1726.88
2018-12-27T11:20:48.619Z,1530
2018-12-27T11:21:49.736Z,1738.13
2018-12-27T11:22:50.746Z,2317.5
2018-12-27T11:23:51.175Z,1417.5
2018-12-27T11:24:51.882Z,1265.63
2018-12-27T11:25:53.562Z,2520
2018-12-27T11:26:53.138Z,2891.25
2018-12-27T11:27:53.571Z,3155.63
2018-12-27T11:28:54.833Z,2587.5
2018-12-27T11:30:14.659Z,2626.88
2018-12-27T11:30:23.027Z,2559.38
2018-12-27T11:31:19.748Z,2092.5
2018-12-27T11:32:20.459Z,1693.13
2018-12-27T11:33:21.907Z,877.5
2018-12-27T11:34:22.344Z,967.5
2018-12-27T11:35:23.054Z,1170
2018-12-27T11:36:23.780Z,725.63
2018-12-27T11:37:24.487Z,511.88
2018-12-27T11:38:24.916Z,866.25
2018-12-27T11:39:25.905Z,2092.5
2018-12-27T11:40:25.641Z,2716.88
2018-12-27T11:41:26.221Z,1687.5
2018-12-27T11:42:28.204Z,725.63
2018-12-27T11:43:28.634Z,472.5
2018-12-27T11:44:29.619Z,438.75
2018-12-27T11:45:29.934Z,1102.5
2018-12-27T11:46:30.916Z,2283.75
2018-12-27T11:47:31.182Z,2328.75
2018-12-27T11:48:45.352Z,1929.38
2018-12-27T11:49:44.134Z,1546.88
2018-12-27T11:50:45.568Z,905.63
2018-12-27T11:51:45.718Z,618.75
2018-12-27T11:52:46.424Z,1395
2018-12-27T11:53:47.689Z,2188.13
2018-12-27T11:54:50.483Z,1383.75
2018-12-27T11:55:49.669Z,1164.38
2018-12-27T11:56:49.816Z,1147.5
2018-12-27T11:57:51.524Z,849.38
2018-12-27T11:58:52.234Z,877.5
2018-12-27T11:59:58.343Z,1299.38
2018-12-27T12:00:10.534Z,1434.38
2018-12-27T12:00:23.265Z,1411.88
2018-12-27T12:00:37.619Z,1338.75
2018-12-27T12:00:45.373Z,1383.75
2018-12-27T12:01:43.542Z,1670.63
2018-12-27T12:02:43.980Z,1361.25
2018-12-27T12:03:45.243Z,871.88
2018-12-27T12:04:45.675Z,1378.13
2018-12-27T12:05:50.760Z,2086.88
2018-12-27T12:07:02.447Z,1963.13
2018-12-27T12:08:00.183Z,1856.25
2018-12-27T12:09:01.902Z,1991.25
2018-12-27T12:10:03.443Z,2047.5
2018-12-27T12:11:04.709Z,2435.63
2018-12-27T12:12:05.428Z,2542.5
2018-12-27T12:13:05.862Z,2137.5
2018-12-27T12:14:06.884Z,2098.13
2018-12-27T12:15:07.936Z,2660.63
2018-12-27T12:16:08.655Z,3037.5
2018-12-27T12:17:09.641Z,2660.63
2018-12-27T12:18:10.788Z,2283.75
2018-12-27T12:19:10.825Z,2210.63
2018-12-27T12:20:11.259Z,1963.13
2018-12-27T12:21:12.970Z,1603.13
2018-12-27T12:22:13.959Z,1265.63
2018-12-27T12:23:14.394Z,1597.5
2018-12-27T12:24:14.549Z,1046.25
2018-12-27T12:25:16.157Z,821.25
2018-12-27T12:26:16.591Z,759.38
2018-12-27T12:27:17.024Z,714.38
2018-12-27T12:28:16.938Z,703.13
2018-12-27T12:29:18.652Z,748.13
2018-12-27T12:30:20.853Z,630
2018-12-27T12:31:21.932Z,613.13
2018-12-27T12:32:22.085Z,585
2018-12-27T12:33:24.352Z,568.13
2018-12-27T12:34:25.060Z,551.25
2018-12-27T12:35:26.059Z,545.63
2018-12-27T12:36:26.771Z,534.38
2018-12-27T12:37:27.201Z,523.13
2018-12-27T12:38:27.791Z,517.5
2018-12-27T12:39:29.216Z,517.5
2018-12-27T12:40:30.211Z,523.13
2018-12-27T12:41:31.193Z,489.38
2018-12-27T12:42:51.490Z,450
2018-12-27T12:43:14.623Z,433.13
2018-12-27T12:43:23.696Z,427.5
2018-12-27T12:44:21.935Z,405
2018-12-27T12:45:23.368Z,393.75
2018-12-27T12:46:24.097Z,371.25
2018-12-27T12:47:26.100Z,354.38
2018-12-27T12:48:26.252Z,343.13
2018-12-27T12:49:27.400Z,331.88
2018-12-27T12:50:29.384Z,326.25
2018-12-27T12:51:28.808Z,320.63
2018-12-27T12:52:29.520Z,315
2018-12-27T12:53:30.231Z,320.63
2018-12-27T12:54:31.250Z,309.38
2018-12-27T12:55:32.678Z,309.38
2018-12-27T12:56:33.442Z,303.75
2018-12-27T12:57:33.871Z,303.75
2018-12-27T12:58:34.577Z,303.75
2018-12-27T12:59:35.563Z,303.75
2018-12-27T13:00:35.984Z,309.38
2018-12-27T13:01:37.699Z,309.38
2018-12-27T13:02:38.137Z,315
2018-12-27T13:03:39.639Z,315
2018-12-27T13:04:40.207Z,315
2018-12-27T13:05:40.698Z,315
2018-12-27T13:06:41.961Z,315
2018-12-27T13:07:42.178Z,320.63
2018-12-27T13:08:42.884Z,315
2018-12-27T13:09:43.589Z,315
2018-12-27T13:10:45.376Z,309.38
2018-12-27T13:11:45.449Z,303.75
2018-12-27T13:12:47.113Z,298.13
2018-12-27T13:13:46.888Z,292.5
2018-12-27T13:14:47.460Z,286.88
2018-12-27T13:15:48.605Z,286.88
2018-12-27T13:16:51.127Z,281.25
2018-12-27T13:17:52.253Z,281.25
2018-12-27T13:18:52.929Z,275.63
2018-12-27T13:19:54.015Z,275.63
2018-12-27T13:20:55.376Z,275.63
2018-12-27T13:21:55.086Z,264.38
2018-12-27T13:22:55.234Z,258.75
2018-12-27T13:23:57.004Z,258.75
2018-12-27T13:24:59.348Z,258.75
2018-12-27T13:25:58.620Z,253.13
2018-12-27T13:26:59.046Z,247.5
2018-12-27T13:27:59.248Z,247.5
2018-12-27T13:28:59.951Z,241.88
2018-12-27T13:30:05.052Z,236.25
2018-12-27T13:30:18.980Z,236.25